createdAt,value
2022-09-10T00:08:31.294Z,14.80
2022-09-10T00:18:36.054Z,14.90
2022-09-10T00:28:41.304Z,14.90
2022-09-10T00:38:44.979Z,14.90
2022-09-10T00:48:50.592Z,15.00
2022-09-10T00:58:54.512Z,15.00
2022-09-10T01:09:00.180Z,15.00
2022-09-10T01:19:26.703Z,15.10
2022-09-10T01:29:39.188Z,15.00
2022-09-10T01:39:45.247Z,15.00
2022-09-10T01:50:06.429Z,15.00
2022-09-10T02:00:12.805Z,14.90
2022-09-10T02:10:21.130Z,14.90
2022-09-10T02:20:26.128Z,14.80
2022-09-10T02:30:31.283Z,14.90
2022-09-10T02:40:35.217Z,14.90
2022-09-10T02:50:41.028Z,14.90
2022-09-10T03:00:45.500Z,14.90
2022-09-10T03:10:50.702Z,14.80
2022-09-10T03:20:54.285Z,14.80
2022-09-10T03:30:59.640Z,14.70
2022-09-10T03:41:04.944Z,14.60
2022-09-10T03:51:10.979Z,14.60
2022-09-10T04:01:16.016Z,14.50
2022-09-10T04:11:27.694Z,14.50
2022-09-10T04:21:33.079Z,14.60
2022-09-10T04:31:39.087Z,14.60
2022-09-10T04:41:48.752Z,14.60
2022-09-10T04:51:54.721Z,14.70
2022-09-10T05:02:00.313Z,14.80
2022-09-10T05:12:06.714Z,14.80
2022-09-10T05:22:11.000Z,14.80
2022-09-10T05:32:15.983Z,14.90
2022-09-10T05:42:22.288Z,15.10
2022-09-10T05:52:27.734Z,15.10
2022-09-10T06:02:36.443Z,15.20
2022-09-10T06:12:46.931Z,15.50
2022-09-10T06:22:52.194Z,15.50
2022-09-10T06:32:58.100Z,15.70
2022-09-10T06:43:03.370Z,15.80
2022-09-10T06:53:32.979Z,15.70
2022-09-10T07:03:38.541Z,15.60
2022-09-10T07:13:44.301Z,15.40
2022-09-10T07:23:52.072Z,15.40
2022-09-10T07:33:59.170Z,15.70
2022-09-10T07:44:04.470Z,15.90
2022-09-10T07:54:17.354Z,15.80
2022-09-10T08:04:28.645Z,15.90
2022-09-10T08:14:34.155Z,16.10
2022-09-10T08:24:38.333Z,16.40
2022-09-10T08:34:43.638Z,17.00
2022-09-10T08:44:54.127Z,17.80
2022-09-10T08:55:15.438Z,18.20
2022-09-10T09:05:23.922Z,18.30
2022-09-10T09:15:41.706Z,18.90
2022-09-10T09:25:50.961Z,19.20
2022-09-10T09:36:03.468Z,19.50
2022-09-10T09:46:16.173Z,18.80
2022-09-10T09:56:30.577Z,18.90
2022-09-10T10:06:46.261Z,19.30
2022-09-10T10:17:00.430Z,19.80
2022-09-10T10:27:04.898Z,20.00
2022-09-10T10:37:20.701Z,20.80
2022-09-10T10:47:52.962Z,23.70
2022-09-10T10:58:29.216Z,22.40
2022-09-10T11:08:41.346Z,21.30
2022-09-10T11:18:52.118Z,23.50
2022-09-10T11:29:05.460Z,23.10
2022-09-10T11:39:19.767Z,23.10
2022-09-10T11:49:32.606Z,25.20
2022-09-10T11:59:55.400Z,32.80
2022-09-10T12:10:14.546Z,28.60
2022-09-10T12:20:25.652Z,28.10
2022-09-10T12:31:00.296Z,31.40
2022-09-10T12:41:10.451Z,36.10
2022-09-10T12:51:32.117Z,31.40
2022-09-10T13:01:46.551Z,26.60
2022-09-10T13:11:54.254Z,24.70
2022-09-10T13:21:59.333Z,22.60
2022-09-10T13:32:09.365Z,22.20
2022-09-10T13:42:42.459Z,26.20
2022-09-10T13:52:51.363Z,26.10
2022-09-10T14:02:58.750Z,23.50
2022-09-10T14:13:03.643Z,21.90
2022-09-10T14:23:15.144Z,22.70
2022-09-10T14:33:31.037Z,22.70
2022-09-10T14:43:39.179Z,21.70
2022-09-10T14:53:44.267Z,22.30
2022-09-10T15:03:49.153Z,21.30
2022-09-10T15:13:56.070Z,20.10
2022-09-10T15:24:01.354Z,19.40
2022-09-10T15:34:06.558Z,19.60
2022-09-10T15:44:11.883Z,19.50
2022-09-10T15:54:15.554Z,19.30
2022-09-10T16:04:20.736Z,18.90
2022-09-10T16:14:24.655Z,18.20
2022-09-10T16:24:29.464Z,17.50
2022-09-10T16:34:33.055Z,17.00
2022-09-10T16:44:39.534Z,16.90
2022-09-10T16:54:43.008Z,16.60
2022-09-10T17:04:47.935Z,16.40
2022-09-10T17:14:51.587Z,16.00
2022-09-10T17:24:56.532Z,15.80
2022-09-10T17:35:00.405Z,15.60
2022-09-10T17:45:07.260Z,15.30
2022-09-10T17:55:10.863Z,15.00
2022-09-10T18:05:15.922Z,14.90
2022-09-10T18:15:19.747Z,14.20
2022-09-10T18:25:25.962Z,13.90
2022-09-10T18:35:29.908Z,13.60
2022-09-10T18:45:35.414Z,12.90
2022-09-10T18:55:38.993Z,12.40
2022-09-10T19:05:44.215Z,12.10
2022-09-10T19:15:56.403Z,11.70
2022-09-10T19:26:02.083Z,11.30
2022-09-10T19:36:08.358Z,11.00
2022-09-10T19:46:15.030Z,10.90
2022-09-10T19:56:21.955Z,11.00
2022-09-10T20:06:28.939Z,11.30
2022-09-10T20:16:32.875Z,11.50
2022-09-10T20:26:41.252Z,11.60
2022-09-10T20:36:45.228Z,11.80
2022-09-10T20:46:50.228Z,11.90
2022-09-10T20:56:53.890Z,11.70
2022-09-10T21:07:00.118Z,11.30
2022-09-10T21:17:03.889Z,11.00
2022-09-10T21:27:09.183Z,11.10
2022-09-10T21:37:12.909Z,11.10
2022-09-10T21:47:18.067Z,11.10
2022-09-10T21:57:21.796Z,11.00
2022-09-10T22:07:27.143Z,11.10
2022-09-10T22:17:30.785Z,11.40
2022-09-10T22:27:35.858Z,11.50
2022-09-10T22:37:39.938Z,11.10
2022-09-10T22:47:45.280Z,10.60
2022-09-10T22:57:48.969Z,10.30
2022-09-10T23:07:54.216Z,10.20
2022-09-10T23:17:57.978Z,10.10
2022-09-10T23:28:07.208Z,9.90
2022-09-10T23:38:10.905Z,9.90
2022-09-10T23:48:16.158Z,10.00
2022-09-10T23:58:20.542Z,9.80
